SKPC/PCR METAR and TAF weather

Enter ICAO airport designator
Station Type Date Time Source
SKPC METAR 2020/07/03 23:00 UTC NOAA

SKPC 032300Z 00000KT 9999 SCT017 SCT070 28/23 A2980


Station Type Date Time Source
SKPC Decoded METAR 2020/07/03 23:00 UTC NOAA

Puerto Carreno / A. Guauquea, Colombia (SKPC) 06-10N 067-30W
Jul 03, 2020 - 07:00 PM EDT / 2020.07.03 2300 UTC
Wind: Calm:0
Visibility: greater than 7 mile(s):0
Sky conditions: partly cloudy
Temperature: 82 F (28 C)
Dew Point: 73 F (23 C)
Relative Humidity: 74%
Pressure (altimeter): 29.8 in. Hg (1009 hPa)
ob: SKPC 032300Z 00000KT 9999 SCT017 SCT070 28/23 A2980
cycle: 23

Station Type Date Time Source
SKPC TAF UTC NOAA

Error!

Example: see airport list